createdAt,value
2023-02-10T00:01:24.675Z,9.14
2023-02-10T00:03:51.630Z,9.24
2023-02-10T00:06:20.268Z,9.04
2023-02-10T00:08:48.745Z,8.97
2023-02-10T00:11:16.836Z,8.91
2023-02-10T00:13:44.150Z,8.99
2023-02-10T00:16:16.598Z,9.04
2023-02-10T00:18:43.677Z,9.06
2023-02-10T00:21:16.639Z,9.18
2023-02-10T00:23:43.946Z,9.23
2023-02-10T00:26:13.942Z,9.23
2023-02-10T00:28:43.916Z,9.25
2023-02-10T00:31:16.049Z,9.26
2023-02-10T00:33:43.002Z,9.28
2023-02-10T00:36:11.961Z,9.29
2023-02-10T00:38:39.854Z,9.23
2023-02-10T00:41:11.190Z,9.31
2023-02-10T00:43:40.366Z,9.30
2023-02-10T00:46:08.052Z,9.00
2023-02-10T00:48:35.117Z,9.07
2023-02-10T00:51:02.589Z,9.07
2023-02-10T00:53:29.352Z,8.97
2023-02-10T00:55:57.085Z,8.97
2023-02-10T00:58:24.307Z,9.04
2023-02-10T01:00:51.513Z,9.03
2023-02-10T01:03:18.528Z,9.12
2023-02-10T01:05:46.393Z,9.13
2023-02-10T01:08:14.572Z,9.11
2023-02-10T01:10:41.844Z,8.97
2023-02-10T01:13:10.683Z,8.99
2023-02-10T01:15:50.818Z,8.96
2023-02-10T01:18:17.843Z,8.91
2023-02-10T01:20:44.687Z,8.78
2023-02-10T01:23:11.817Z,8.82
2023-02-10T01:25:39.182Z,8.80
2023-02-10T01:28:07.270Z,8.85
2023-02-10T01:30:34.605Z,8.86
2023-02-10T01:33:01.408Z,8.83
2023-02-10T01:35:30.827Z,8.69
2023-02-10T01:37:58.053Z,8.72
2023-02-10T01:40:26.076Z,8.57
2023-02-10T01:42:52.965Z,8.49
2023-02-10T01:45:36.965Z,8.46
2023-02-10T01:48:05.218Z,8.33
2023-02-10T01:50:38.978Z,8.30
2023-02-10T01:53:07.016Z,8.18
2023-02-10T01:55:36.457Z,8.17
2023-02-10T01:58:08.560Z,8.16
2023-02-10T02:00:35.864Z,8.11
2023-02-10T02:03:05.798Z,8.04
2023-02-10T02:05:36.003Z,8.17
2023-02-10T02:08:10.327Z,8.10
2023-02-10T02:10:51.641Z,7.89
2023-02-10T02:13:53.433Z,8.01
2023-02-10T02:16:45.056Z,8.11
2023-02-10T02:19:21.817Z,8.12
2023-02-10T02:22:09.875Z,7.81
2023-02-10T02:24:54.550Z,7.83
2023-02-10T02:27:30.831Z,7.72
2023-02-10T02:30:15.679Z,7.63
2023-02-10T02:32:52.978Z,7.60
2023-02-10T02:35:28.974Z,7.43
2023-02-10T02:37:56.746Z,7.49
2023-02-10T02:40:23.705Z,7.43
2023-02-10T02:42:51.218Z,7.42
2023-02-10T02:45:26.745Z,7.41
2023-02-10T02:48:14.845Z,7.43
2023-02-10T02:50:56.525Z,7.45
2023-02-10T02:53:29.706Z,7.27
2023-02-10T02:56:24.994Z,7.50
2023-02-10T02:59:12.593Z,7.46
2023-02-10T03:01:42.370Z,7.44
2023-02-10T03:04:13.418Z,7.45
2023-02-10T03:06:40.536Z,7.37
2023-02-10T03:09:07.450Z,7.39
2023-02-10T03:11:34.160Z,7.21
2023-02-10T03:14:01.085Z,7.35
2023-02-10T03:16:27.833Z,7.30
2023-02-10T03:18:54.624Z,7.26
2023-02-10T03:21:21.397Z,7.35
2023-02-10T03:23:48.180Z,7.26
2023-02-10T03:26:14.951Z,7.33
2023-02-10T03:28:41.716Z,7.38
2023-02-10T03:31:09.039Z,7.43
2023-02-10T03:33:36.702Z,7.45
2023-02-10T03:36:04.069Z,7.55
2023-02-10T03:38:30.888Z,7.55
2023-02-10T03:40:57.701Z,7.53
2023-02-10T03:43:24.767Z,7.48
2023-02-10T03:45:51.646Z,7.43
2023-02-10T03:48:18.668Z,7.32
2023-02-10T03:50:45.544Z,7.25
2023-02-10T03:53:12.636Z,7.06
2023-02-10T03:55:39.411Z,7.25
2023-02-10T03:58:06.307Z,7.13
2023-02-10T04:00:33.101Z,7.13
2023-02-10T04:02:59.839Z,7.06
2023-02-10T04:05:26.584Z,7.16
2023-02-10T04:07:53.449Z,7.24
2023-02-10T04:10:21.542Z,7.24
2023-02-10T04:12:49.329Z,7.27
2023-02-10T04:15:16.632Z,7.22
2023-02-10T04:17:43.451Z,7.26
2023-02-10T04:20:11.243Z,7.14
2023-02-10T04:22:38.335Z,7.06
2023-02-10T04:25:05.811Z,6.95
2023-02-10T04:27:32.764Z,6.84
2023-02-10T04:29:59.507Z,6.82
2023-02-10T04:32:33.953Z,6.71
2023-02-10T04:35:00.720Z,6.85
2023-02-10T04:37:27.498Z,6.82
2023-02-10T04:39:54.247Z,6.68
2023-02-10T04:42:34.930Z,6.85
2023-02-10T04:45:15.753Z,6.90
2023-02-10T04:47:43.039Z,6.79
2023-02-10T04:50:09.792Z,6.78
2023-02-10T04:52:36.509Z,6.80
2023-02-10T04:55:03.437Z,6.66
2023-02-10T04:57:30.275Z,6.68
2023-02-10T04:59:59.290Z,6.76
2023-02-10T05:02:26.084Z,6.81
2023-02-10T05:04:55.267Z,6.86
2023-02-10T05:07:22.006Z,6.89
2023-02-10T05:09:50.843Z,6.84
2023-02-10T05:12:17.661Z,6.70
2023-02-10T05:14:44.384Z,6.78
2023-02-10T05:17:11.119Z,6.73
2023-02-10T05:19:37.887Z,6.82
2023-02-10T05:22:04.671Z,6.79
2023-02-10T05:24:31.531Z,6.79
2023-02-10T05:26:58.282Z,7.05
2023-02-10T05:29:25.046Z,7.21
2023-02-10T05:31:51.879Z,7.31
2023-02-10T05:34:18.722Z,7.42
2023-02-10T05:36:45.499Z,7.33
2023-02-10T05:39:25.041Z,7.57
2023-02-10T05:41:56.983Z,7.49
2023-02-10T05:44:25.211Z,7.49
2023-02-10T05:46:52.573Z,7.43
2023-02-10T05:49:19.695Z,7.26
2023-02-10T05:51:46.986Z,7.17
2023-02-10T05:54:14.603Z,7.12
2023-02-10T05:56:41.634Z,6.95
2023-02-10T05:59:08.480Z,6.81
2023-02-10T06:01:35.274Z,6.52
2023-02-10T06:04:02.006Z,6.33
2023-02-10T06:06:28.798Z,6.18
2023-02-10T06:08:55.609Z,6.21
2023-02-10T06:11:22.404Z,6.15
2023-02-10T06:13:49.187Z,6.09
2023-02-10T06:16:15.962Z,5.73
2023-02-10T06:18:44.024Z,5.93
2023-02-10T06:21:10.782Z,5.84
2023-02-10T06:23:37.588Z,5.88
2023-02-10T06:26:04.519Z,5.66
2023-02-10T06:28:31.294Z,5.67
2023-02-10T06:30:59.037Z,5.87
2023-02-10T06:33:26.214Z,5.93
2023-02-10T06:35:53.006Z,5.73
2023-02-10T06:38:19.739Z,5.78
2023-02-10T06:40:46.592Z,5.79
2023-02-10T06:43:13.524Z,5.71
2023-02-10T06:45:40.309Z,5.73
2023-02-10T06:48:07.116Z,5.72
2023-02-10T06:50:33.925Z,5.71
2023-02-10T06:53:00.730Z,5.77
2023-02-10T06:55:27.595Z,5.73
2023-02-10T06:57:54.254Z,5.83
2023-02-10T07:00:21.097Z,5.68
2023-02-10T07:02:49.906Z,5.80
2023-02-10T07:05:17.272Z,5.93
2023-02-10T07:07:44.077Z,6.00
2023-02-10T07:10:11.015Z,6.09
2023-02-10T07:12:38.355Z,6.19
2023-02-10T07:15:06.353Z,6.20
2023-02-10T07:17:33.308Z,6.22
2023-02-10T07:20:00.547Z,6.24
2023-02-10T07:22:27.383Z,6.36
2023-02-10T07:24:54.249Z,6.28
2023-02-10T07:27:21.123Z,6.28
2023-02-10T07:29:48.298Z,6.38
2023-02-10T07:32:15.095Z,6.32
2023-02-10T07:34:41.860Z,6.24
2023-02-10T07:37:09.531Z,6.50
2023-02-10T07:39:36.872Z,6.54
2023-02-10T07:42:04.149Z,6.62
2023-02-10T07:44:47.142Z,6.76
2023-02-10T07:47:13.935Z,6.86
2023-02-10T07:49:40.709Z,6.93
2023-02-10T07:52:07.481Z,7.09
2023-02-10T07:54:34.423Z,7.01
2023-02-10T07:57:01.199Z,7.13
2023-02-10T07:59:28.149Z,7.23
2023-02-10T08:01:54.988Z,7.33
2023-02-10T08:04:22.029Z,7.41
2023-02-10T08:06:49.047Z,7.44
2023-02-10T08:09:18.289Z,7.53
2023-02-10T08:11:45.303Z,7.50
2023-02-10T08:14:12.119Z,7.49
2023-02-10T08:16:38.896Z,7.57
2023-02-10T08:19:08.205Z,7.66
2023-02-10T08:21:35.161Z,7.68
2023-02-10T08:24:02.291Z,7.78
2023-02-10T08:26:29.041Z,7.82
2023-02-10T08:28:55.845Z,7.82
2023-02-10T08:31:23.395Z,7.84
2023-02-10T08:33:50.248Z,7.93
2023-02-10T08:36:19.798Z,7.84
2023-02-10T08:38:48.052Z,7.72
2023-02-10T08:41:15.539Z,7.85
2023-02-10T08:43:43.031Z,8.05
2023-02-10T08:46:10.105Z,8.14
2023-02-10T08:48:37.193Z,8.21
2023-02-10T08:51:10.071Z,8.34
2023-02-10T08:53:36.932Z,8.37
2023-02-10T08:56:07.586Z,8.50
2023-02-10T08:58:35.257Z,8.57
2023-02-10T09:01:02.452Z,8.65
2023-02-10T09:03:29.630Z,8.61
2023-02-10T09:05:56.487Z,8.74
2023-02-10T09:08:23.261Z,8.67
2023-02-10T09:10:50.203Z,8.73
2023-02-10T09:13:17.188Z,8.94
2023-02-10T09:15:43.993Z,9.08
2023-02-10T09:18:11.506Z,9.13
2023-02-10T09:20:38.384Z,9.32
2023-02-10T09:23:05.501Z,9.31
2023-02-10T09:25:32.456Z,9.47
2023-02-10T09:27:59.346Z,9.56
2023-02-10T09:30:27.367Z,9.47
2023-02-10T09:32:55.245Z,9.31
2023-02-10T09:35:22.351Z,9.26
2023-02-10T09:37:49.689Z,9.15
2023-02-10T09:40:21.126Z,9.26
2023-02-10T09:42:58.047Z,9.39
2023-02-10T09:45:30.321Z,9.61
2023-02-10T09:48:29.424Z,9.71
2023-02-10T09:50:58.888Z,9.87
2023-02-10T09:53:29.181Z,10.22
2023-02-10T09:56:03.276Z,10.23
2023-02-10T09:58:49.754Z,10.40
2023-02-10T10:01:25.448Z,10.65
2023-02-10T10:04:06.384Z,10.78
2023-02-10T10:06:40.034Z,11.02
2023-02-10T10:09:20.050Z,11.14
2023-02-10T10:11:55.000Z,11.18
2023-02-10T10:14:26.389Z,11.32
2023-02-10T10:16:54.003Z,11.12
2023-02-10T10:19:48.398Z,11.27
2023-02-10T10:22:53.272Z,11.44
2023-02-10T10:25:57.939Z,11.54
2023-02-10T10:28:36.895Z,11.55
2023-02-10T10:31:19.030Z,11.50
2023-02-10T10:33:53.110Z,11.45
2023-02-10T10:36:30.642Z,11.30
2023-02-10T10:39:01.779Z,11.29
2023-02-10T10:41:32.704Z,11.47
2023-02-10T10:43:59.736Z,11.54
2023-02-10T10:46:58.891Z,11.50
2023-02-10T10:49:25.830Z,11.54
2023-02-10T10:51:52.599Z,11.63
2023-02-10T10:54:22.702Z,11.65
2023-02-10T10:56:57.785Z,11.87
2023-02-10T10:59:24.469Z,11.90
2023-02-10T11:01:53.710Z,12.08
2023-02-10T11:04:26.061Z,11.93
2023-02-10T11:06:55.260Z,11.88
2023-02-10T11:09:27.791Z,11.87
2023-02-10T11:12:01.208Z,12.03
2023-02-10T11:14:29.559Z,12.32
2023-02-10T11:17:02.587Z,12.47
2023-02-10T11:19:43.983Z,12.61
2023-02-10T11:22:16.933Z,12.84
2023-02-10T11:24:55.468Z,13.00
2023-02-10T11:27:23.125Z,13.09
2023-02-10T11:29:55.988Z,13.31
2023-02-10T11:32:27.623Z,13.47
2023-02-10T11:34:57.898Z,13.62
2023-02-10T11:37:29.105Z,13.29
2023-02-10T11:39:59.137Z,13.04
2023-02-10T11:42:34.269Z,12.94
2023-02-10T11:45:01.089Z,13.01
2023-02-10T11:47:33.275Z,12.97
2023-02-10T11:50:00.478Z,13.20
2023-02-10T11:52:31.103Z,13.34
2023-02-10T11:54:57.998Z,13.50
2023-02-10T11:57:58.417Z,13.65
2023-02-10T12:00:39.246Z,13.65
2023-02-10T12:03:47.128Z,13.83
2023-02-10T12:06:36.765Z,13.92
2023-02-10T12:09:21.015Z,13.73
2023-02-10T12:12:00.752Z,13.26
2023-02-10T12:14:36.352Z,13.41
2023-02-10T12:17:30.765Z,13.47
2023-02-10T12:20:20.008Z,13.05
2023-02-10T12:23:12.023Z,13.51
2023-02-10T12:25:50.635Z,13.57
2023-02-10T12:28:37.634Z,13.63
2023-02-10T12:31:21.976Z,13.72
2023-02-10T12:34:05.881Z,13.71
2023-02-10T12:36:51.661Z,13.87
2023-02-10T12:39:26.856Z,13.87
2023-02-10T12:42:36.951Z,13.83
2023-02-10T12:45:37.838Z,13.87
2023-02-10T12:48:23.244Z,13.82
2023-02-10T12:51:27.547Z,13.95
2023-02-10T12:54:19.056Z,13.96
2023-02-10T12:57:08.526Z,13.94
2023-02-10T13:00:04.633Z,13.85
2023-02-10T13:02:41.241Z,13.81
2023-02-10T13:05:21.383Z,13.94
2023-02-10T13:07:52.679Z,13.75
2023-02-10T13:10:37.606Z,13.92
2023-02-10T13:13:13.789Z,13.88
2023-02-10T13:15:51.743Z,13.95
2023-02-10T13:18:25.067Z,13.85
2023-02-10T13:20:58.819Z,13.92
2023-02-10T13:23:44.106Z,13.85
2023-02-10T13:26:29.364Z,13.84
2023-02-10T13:29:02.972Z,13.71
2023-02-10T13:31:42.329Z,13.71
2023-02-10T13:34:20.546Z,13.53
2023-02-10T13:36:57.353Z,13.56
2023-02-10T13:39:31.384Z,13.58
2023-02-10T13:42:18.842Z,13.39
2023-02-10T13:44:46.003Z,13.57
2023-02-10T13:47:24.677Z,13.70
2023-02-10T13:50:05.401Z,13.63
2023-02-10T13:52:35.943Z,13.72
2023-02-10T13:55:29.908Z,13.74
2023-02-10T13:58:18.036Z,13.84
2023-02-10T14:00:46.069Z,13.88
2023-02-10T14:03:12.763Z,13.82
2023-02-10T14:05:56.107Z,13.78
2023-02-10T14:08:53.722Z,13.73
2023-02-10T14:11:28.950Z,13.71
2023-02-10T14:13:58.451Z,13.74
2023-02-10T14:16:37.067Z,13.79
2023-02-10T14:19:31.648Z,13.79
2023-02-10T14:22:00.569Z,13.67
2023-02-10T14:24:49.227Z,13.66
2023-02-10T14:27:19.605Z,13.71
2023-02-10T14:29:56.977Z,13.71
2023-02-10T14:32:24.070Z,13.74
2023-02-10T14:35:27.800Z,13.71
2023-02-10T14:37:58.726Z,13.57
2023-02-10T14:40:28.318Z,13.50
2023-02-10T14:42:55.365Z,13.43
2023-02-10T14:45:27.476Z,13.52
2023-02-10T14:47:58.262Z,13.50
2023-02-10T14:50:34.102Z,13.47
2023-02-10T14:53:04.079Z,13.50
2023-02-10T14:55:36.259Z,13.56
2023-02-10T14:58:11.351Z,13.61
2023-02-10T15:00:41.045Z,13.58
2023-02-10T15:03:12.665Z,13.59
2023-02-10T15:05:48.411Z,13.62
2023-02-10T15:08:24.017Z,13.57
2023-02-10T15:10:55.941Z,13.68
2023-02-10T15:13:32.110Z,13.67
2023-02-10T15:15:59.802Z,13.63
2023-02-10T15:18:29.778Z,13.60
2023-02-10T15:21:04.530Z,13.69
2023-02-10T15:23:33.379Z,13.58
2023-02-10T15:26:06.114Z,13.65
2023-02-10T15:28:33.451Z,13.67
2023-02-10T15:31:03.366Z,13.64
2023-02-10T15:33:36.156Z,13.69
2023-02-10T15:36:11.964Z,13.65
2023-02-10T15:38:53.697Z,13.64
2023-02-10T15:41:44.342Z,13.62
2023-02-10T15:44:20.144Z,13.56
2023-02-10T15:46:47.825Z,13.62
2023-02-10T15:49:19.342Z,13.57
2023-02-10T15:51:53.394Z,13.66
2023-02-10T15:54:26.448Z,13.71
2023-02-10T15:56:57.385Z,13.70
2023-02-10T15:59:28.807Z,13.72
2023-02-10T16:02:00.760Z,13.79
2023-02-10T16:04:31.523Z,13.78
2023-02-10T16:07:00.519Z,13.77
2023-02-10T16:09:28.401Z,13.81
2023-02-10T16:11:55.477Z,13.71
2023-02-10T16:14:22.180Z,13.72
2023-02-10T16:16:55.647Z,13.72
2023-02-10T16:19:25.187Z,13.74
2023-02-10T16:21:56.654Z,13.74
2023-02-10T16:24:26.407Z,13.70
2023-02-10T16:26:53.561Z,13.70
2023-02-10T16:29:23.225Z,13.67
2023-02-10T16:31:50.167Z,13.69
2023-02-10T16:34:17.363Z,13.65
2023-02-10T16:36:45.703Z,13.60
2023-02-10T16:39:19.091Z,13.58
2023-02-10T16:41:47.183Z,13.57
2023-02-10T16:44:14.063Z,13.47
2023-02-10T16:46:40.923Z,13.42
2023-02-10T16:49:08.604Z,13.43
2023-02-10T16:51:35.635Z,13.41
2023-02-10T16:54:08.481Z,13.40
2023-02-10T16:56:35.191Z,13.39
2023-02-10T16:59:02.714Z,13.38
2023-02-10T17:01:29.987Z,13.27
2023-02-10T17:03:56.794Z,13.28
2023-02-10T17:06:24.424Z,13.26
2023-02-10T17:08:51.374Z,13.15
2023-02-10T17:11:18.170Z,13.16
2023-02-10T17:13:45.159Z,13.09
2023-02-10T17:16:41.238Z,12.98
2023-02-10T17:19:08.266Z,12.93
2023-02-10T17:21:35.086Z,12.93
2023-02-10T17:24:01.922Z,12.90
2023-02-10T17:26:29.041Z,12.85
2023-02-10T17:28:55.906Z,12.84
2023-02-10T17:31:24.202Z,12.83
2023-02-10T17:33:52.302Z,12.82
2023-02-10T17:36:24.251Z,12.81
2023-02-10T17:38:52.328Z,12.75
2023-02-10T17:41:25.272Z,12.73
2023-02-10T17:43:55.368Z,12.73
2023-02-10T17:46:23.401Z,12.68
2023-02-10T17:48:50.390Z,12.66
2023-02-10T17:51:19.669Z,12.62
2023-02-10T17:53:49.292Z,12.61
2023-02-10T17:56:17.866Z,12.59
2023-02-10T17:58:44.669Z,12.59
2023-02-10T18:01:23.451Z,12.57
2023-02-10T18:03:50.549Z,12.54
2023-02-10T18:06:18.189Z,12.50
2023-02-10T18:08:46.055Z,12.49
2023-02-10T18:11:13.120Z,12.51
2023-02-10T18:13:39.880Z,12.49
2023-02-10T18:16:07.048Z,12.48
2023-02-10T18:18:33.856Z,12.47
2023-02-10T18:21:00.900Z,12.46
2023-02-10T18:23:28.095Z,12.47
2023-02-10T18:25:55.191Z,12.40
2023-02-10T18:28:23.824Z,12.36
2023-02-10T18:30:51.207Z,12.34
2023-02-10T18:33:18.109Z,12.33
2023-02-10T18:35:45.414Z,12.31
2023-02-10T18:38:12.172Z,12.23
2023-02-10T18:40:43.678Z,12.26
2023-02-10T18:43:11.067Z,12.25
2023-02-10T18:45:44.939Z,12.25
2023-02-10T18:48:12.695Z,12.19
2023-02-10T18:50:39.769Z,12.18
2023-02-10T18:53:07.224Z,12.18
2023-02-10T18:55:34.258Z,12.13
2023-02-10T18:58:03.217Z,12.16
2023-02-10T19:00:30.954Z,12.15
2023-02-10T19:02:58.202Z,12.13
2023-02-10T19:05:25.241Z,12.06
2023-02-10T19:07:53.621Z,12.00
2023-02-10T19:10:24.101Z,12.03
2023-02-10T19:12:51.371Z,11.97
2023-02-10T19:15:18.589Z,11.90
2023-02-10T19:17:45.607Z,11.89
2023-02-10T19:20:12.562Z,11.90
2023-02-10T19:22:39.403Z,11.89
2023-02-10T19:25:08.131Z,11.91
2023-02-10T19:27:35.086Z,11.91
2023-02-10T19:30:02.701Z,11.76
2023-02-10T19:32:29.448Z,11.67
2023-02-10T19:34:56.165Z,11.63
2023-02-10T19:37:23.615Z,11.61
2023-02-10T19:39:50.422Z,11.63
2023-02-10T19:42:17.174Z,11.61
2023-02-10T19:44:43.995Z,11.55
2023-02-10T19:47:10.814Z,11.56
2023-02-10T19:49:38.308Z,11.41
2023-02-10T19:52:05.171Z,11.48
2023-02-10T19:54:32.055Z,11.44
2023-02-10T19:56:58.840Z,11.32
2023-02-10T19:59:25.602Z,11.37
2023-02-10T20:01:53.299Z,11.37
2023-02-10T20:04:20.019Z,11.39
2023-02-10T20:06:48.432Z,11.39
2023-02-10T20:09:15.549Z,11.31
2023-02-10T20:11:42.821Z,11.32
2023-02-10T20:14:11.044Z,11.28
2023-02-10T20:16:40.110Z,11.27
2023-02-10T20:19:14.442Z,11.25
2023-02-10T20:21:42.137Z,11.19
2023-02-10T20:24:09.448Z,11.20
2023-02-10T20:26:36.728Z,11.10
2023-02-10T20:29:04.681Z,11.07
2023-02-10T20:31:32.206Z,11.02
2023-02-10T20:33:59.353Z,11.03
2023-02-10T20:36:27.129Z,10.89
2023-02-10T20:38:54.066Z,10.93
2023-02-10T20:41:22.504Z,10.97
2023-02-10T20:43:50.072Z,10.97
2023-02-10T20:46:18.485Z,10.89
2023-02-10T20:48:46.710Z,10.90
2023-02-10T20:51:14.721Z,10.69
2023-02-10T20:53:42.811Z,10.78
2023-02-10T20:56:12.445Z,10.78
2023-02-10T20:58:40.059Z,10.59
2023-02-10T21:01:09.707Z,10.44
2023-02-10T21:03:39.402Z,10.42
2023-02-10T21:06:10.490Z,10.38
2023-02-10T21:08:38.630Z,10.17
2023-02-10T21:11:06.586Z,9.95
2023-02-10T21:13:33.977Z,10.00
2023-02-10T21:16:01.152Z,9.80
2023-02-10T21:18:28.088Z,9.81
2023-02-10T21:20:56.993Z,9.62
2023-02-10T21:23:53.441Z,9.57
2023-02-10T21:26:20.863Z,9.45
2023-02-10T21:28:47.708Z,9.38
2023-02-10T21:31:21.836Z,9.45
2023-02-10T21:33:50.437Z,9.48
2023-02-10T21:36:28.815Z,9.55
2023-02-10T21:38:56.893Z,9.62
2023-02-10T21:41:42.249Z,9.54
2023-02-10T21:44:15.277Z,9.68
2023-02-10T21:46:46.504Z,9.69
2023-02-10T21:49:14.557Z,9.71
2023-02-10T21:51:41.602Z,9.54
2023-02-10T21:54:08.449Z,9.61
2023-02-10T21:56:35.504Z,9.66
2023-02-10T21:59:04.346Z,9.52
2023-02-10T22:01:31.969Z,9.53
2023-02-10T22:04:00.624Z,9.48
2023-02-10T22:06:28.130Z,9.46
2023-02-10T22:08:56.928Z,9.43
2023-02-10T22:11:23.743Z,9.37
2023-02-10T22:13:50.558Z,9.44
2023-02-10T22:17:02.483Z,9.44
2023-02-10T22:20:03.572Z,9.39
2023-02-10T22:22:30.349Z,9.32
2023-02-10T22:24:57.106Z,9.35
2023-02-10T22:27:23.900Z,9.20
2023-02-10T22:29:50.774Z,9.15
2023-02-10T22:32:17.566Z,9.16
2023-02-10T22:34:47.429Z,9.09
2023-02-10T22:37:14.405Z,9.00
2023-02-10T22:39:42.526Z,8.95
2023-02-10T22:42:10.628Z,9.00
2023-02-10T22:44:38.588Z,9.03
2023-02-10T22:47:05.305Z,8.97
2023-02-10T22:49:32.035Z,8.71
2023-02-10T22:51:58.858Z,8.25
2023-02-10T22:54:25.579Z,8.11
2023-02-10T22:56:52.301Z,7.87
2023-02-10T22:59:19.103Z,7.98
2023-02-10T23:01:46.433Z,7.81
2023-02-10T23:04:17.313Z,8.02
2023-02-10T23:06:44.981Z,8.11
2023-02-10T23:09:13.776Z,8.23
2023-02-10T23:11:47.687Z,8.32
2023-02-10T23:14:14.598Z,8.34
2023-02-10T23:16:41.785Z,8.27
2023-02-10T23:19:08.874Z,8.34
2023-02-10T23:21:35.741Z,8.30
2023-02-10T23:24:02.476Z,8.34
2023-02-10T23:26:31.788Z,8.40
2023-02-10T23:29:04.567Z,8.41
2023-02-10T23:31:32.065Z,8.44
2023-02-10T23:33:59.060Z,8.37
2023-02-10T23:36:26.687Z,8.17
2023-02-10T23:38:54.194Z,8.31
2023-02-10T23:41:21.685Z,8.26
2023-02-10T23:43:48.554Z,8.29
2023-02-10T23:46:15.884Z,8.32
2023-02-10T23:48:43.147Z,8.29
2023-02-10T23:51:16.013Z,8.33
2023-02-10T23:53:43.070Z,8.33
2023-02-10T23:56:12.488Z,8.40
2023-02-10T23:58:39.698Z,8.26
